Time;durP1;ratioP1;P1;durP2;ratioP2;P2;SDS_P1;SDS_P2;PMS_P1;PMS_P2;Temp;Humidity;BMP_temperature;BMP_pressure;BME280_temperature;BME280_humidity;BME280_pressure;Samples;Min_cycle;Max_cycle;Signal;HPM_P1;HPM_P2
2024/01/14 00:01:20;;;;;;;48.22;17.95;;;-3.40;99.90;;;;;;5028356;28;20076;-64
2024/01/14 00:03:47;;;;;;;49.92;18.83;;;-3.40;99.90;;;;;;5027226;28;20037;-65
2024/01/14 00:06:19;;;;;;;40.60;17.95;;;-3.40;99.90;;;;;;5030777;28;20426;-64
2024/01/14 00:08:48;;;;;;;45.75;18.10;;;-3.40;99.90;;;;;;5024294;28;20041;-64
2024/01/14 00:11:20;;;;;;;46.47;20.48;;;-3.40;99.90;;;;;;5040313;28;20042;-64
2024/01/14 00:13:47;;;;;;;42.65;17.40;;;-3.30;99.90;;;;;;5024854;28;20414;-65
2024/01/14 00:16:20;;;;;;;37.10;14.80;;;-3.40;99.90;;;;;;5024686;28;20077;-65
2024/01/14 00:18:47;;;;;;;42.78;16.67;;;-3.30;99.90;;;;;;5027611;28;20056;-65
2024/01/14 00:21:19;;;;;;;47.65;19.23;;;-3.30;99.90;;;;;;5030865;28;20037;-64
2024/01/14 00:23:48;;;;;;;39.20;16.70;;;-3.30;99.90;;;;;;5030412;28;20088;-64
2024/01/14 00:26:15;;;;;;;43.33;17.20;;;-3.20;99.90;;;;;;5036023;28;20042;-65
2024/01/14 00:28:47;;;;;;;42.42;16.52;;;-3.20;99.90;;;;;;5031019;28;20037;-65
2024/01/14 00:31:19;;;;;;;40.67;17.38;;;-3.30;99.90;;;;;;5014018;28;20038;-64
2024/01/14 00:33:49;;;;;;;39.45;15.32;;;-3.30;99.90;;;;;;5024382;28;20071;-65
2024/01/14 00:36:19;;;;;;;40.20;18.17;;;-3.30;99.90;;;;;;5007479;28;20049;-65
2024/01/14 00:38:51;;;;;;;48.17;18.50;;;-3.20;99.90;;;;;;5020988;28;20033;-65
2024/01/14 00:41:24;;;;;;;48.13;18.48;;;-3.20;99.90;;;;;;5022653;28;20113;-67
2024/01/14 00:43:56;;;;;;;42.20;17.30;;;-3.20;99.90;;;;;;5023680;28;20054;-65
2024/01/14 00:46:29;;;;;;;42.78;18.02;;;-3.30;99.90;;;;;;5043820;28;20037;-65
2024/01/14 00:48:56;;;;;;;41.90;17.77;;;-3.20;99.90;;;;;;5021606;28;20038;-64
2024/01/14 00:51:27;;;;;;;45.03;16.73;;;-3.20;99.90;;;;;;5020195;28;20125;-65
2024/01/14 00:53:54;;;;;;;40.65;17.30;;;-3.20;99.90;;;;;;5018044;28;20658;-64
2024/01/14 00:56:26;;;;;;;45.33;18.33;;;-3.20;99.90;;;;;;5022338;28;20133;-64
2024/01/14 00:58:58;;;;;;;44.20;18.13;;;-3.30;99.90;;;;;;5017111;28;20434;-65
2024/01/14 01:01:30;;;;;;;41.72;17.88;;;-3.30;99.90;;;;;;5011892;28;20045;-65
2024/01/14 01:04:02;;;;;;;44.25;18.13;;;-3.30;99.90;;;;;;5025344;28;20034;-65
2024/01/14 01:06:35;;;;;;;42.65;18.38;;;-3.30;99.90;;;;;;5018121;28;20063;-65
2024/01/14 01:09:06;;;;;;;42.28;18.30;;;-3.30;99.90;;;;;;5022522;28;20092;-65
2024/01/14 01:11:38;;;;;;;41.92;16.42;;;-3.20;99.90;;;;;;5020266;28;20699;-65
2024/01/14 01:14:05;;;;;;;40.53;17.45;;;-3.20;99.90;;;;;;5042472;28;20038;-65
2024/01/14 01:16:37;;;;;;;36.88;16.58;;;-3.20;99.90;;;;;;5018590;28;20402;-65
2024/01/14 01:19:09;;;;;;;42.13;17.05;;;-3.30;99.90;;;;;;5018604;28;20041;-65
2024/01/14 01:21:40;;;;;;;41.15;17.90;;;-3.30;99.90;;;;;;5018564;28;20510;-65
2024/01/14 01:24:14;;;;;;;37.15;16.45;;;-3.30;99.90;;;;;;5016178;28;20112;-65
2024/01/14 01:26:46;;;;;;;41.00;18.00;;;-3.40;99.90;;;;;;5037091;28;20415;-65
2024/01/14 01:29:18;;;;;;;41.25;18.17;;;-3.40;99.90;;;;;;5022008;28;20128;-65
2024/01/14 01:31:49;;;;;;;43.63;18.33;;;-3.40;99.90;;;;;;5024025;28;20037;-65
2024/01/14 01:34:16;;;;;;;37.35;16.40;;;-3.40;99.90;;;;;;5023873;28;20697;-65
2024/01/14 01:36:43;;;;;;;42.80;18.98;;;-3.30;99.90;;;;;;5025056;28;20052;-65
2024/01/14 01:39:15;;;;;;;46.47;19.33;;;-3.30;99.90;;;;;;5042357;28;20568;-65
2024/01/14 01:41:49;;;;;;;42.58;17.98;;;-3.30;99.90;;;;;;5022514;28;20093;-66
2024/01/14 01:44:21;;;;;;;46.78;18.13;;;-3.30;99.90;;;;;;5021829;28;20045;-65
2024/01/14 01:46:55;;;;;;;48.35;18.23;;;-3.30;99.90;;;;;;5020966;28;20104;-65
2024/01/14 01:49:31;;;;;;;41.03;18.02;;;-3.30;99.90;;;;;;5019659;28;20044;-65
2024/01/14 01:52:06;;;;;;;42.25;18.63;;;-3.40;99.90;;;;;;5015167;28;20053;-66
2024/01/14 01:54:39;;;;;;;34.83;15.93;;;-3.30;99.90;;;;;;5020096;28;20044;-65
2024/01/14 01:57:12;;;;;;;39.20;18.15;;;-3.40;99.90;;;;;;5016236;28;20418;-65
2024/01/14 01:59:42;;;;;;;37.03;16.85;;;-3.50;99.90;;;;;;5020297;28;20044;-65
2024/01/14 02:02:15;;;;;;;36.30;15.90;;;-3.50;99.90;;;;;;5020095;28;20064;-65
2024/01/14 02:04:47;;;;;;;35.67;16.35;;;-3.50;99.90;;;;;;5022692;28;20048;-65
2024/01/14 02:07:22;;;;;;;39.70;16.20;;;-3.50;99.90;;;;;;5023434;28;20046;-65
2024/01/14 02:09:54;;;;;;;40.20;17.08;;;-3.40;99.90;;;;;;5019458;28;20033;-65
2024/01/14 02:12:26;;;;;;;36.30;16.05;;;-3.40;99.90;;;;;;5009855;28;20041;-65
2024/01/14 02:14:58;;;;;;;34.70;15.40;;;-3.50;99.90;;;;;;5019136;28;20041;-64
2024/01/14 02:17:29;;;;;;;44.05;17.75;;;-3.50;99.90;;;;;;5021397;28;20111;-65
2024/01/14 02:20:01;;;;;;;45.13;17.85;;;-3.50;99.90;;;;;;5015311;28;20065;-64
2024/01/14 02:22:36;;;;;;;42.03;16.23;;;-3.60;99.90;;;;;;5040709;28;20525;-64
2024/01/14 02:25:04;;;;;;;41.38;16.83;;;-3.50;99.90;;;;;;5021502;28;20433;-64
2024/01/14 02:27:36;;;;;;;37.63;17.23;;;-3.40;99.90;;;;;;5017700;28;20057;-65
2024/01/14 02:30:03;;;;;;;44.85;17.35;;;-3.40;99.90;;;;;;5037038;28;20022;-64
2024/01/14 02:32:38;;;;;;;41.65;18.50;;;-3.30;99.90;;;;;;5032585;28;20049;-64
2024/01/14 02:35:10;;;;;;;41.70;16.75;;;-3.30;99.90;;;;;;5018886;28;20089;-64
2024/01/14 02:37:44;;;;;;;39.63;18.73;;;-3.30;99.90;;;;;;5024080;28;20037;-64
2024/01/14 02:40:16;;;;;;;39.47;18.00;;;-3.40;99.90;;;;;;5019808;28;20117;-64
2024/01/14 02:42:48;;;;;;;40.55;18.20;;;-3.40;99.90;;;;;;5017460;28;20038;-64
2024/01/14 02:45:20;;;;;;;38.83;16.65;;;-3.40;99.90;;;;;;5015255;28;20137;-64
2024/01/14 02:47:52;;;;;;;40.78;18.02;;;-3.40;99.90;;;;;;5018124;28;20104;-65
2024/01/14 02:50:23;;;;;;;42.25;17.95;;;-3.40;99.90;;;;;;5019738;28;20148;-64
2024/01/14 02:52:55;;;;;;;41.20;16.98;;;-3.40;99.90;;;;;;5021125;28;20049;-64
2024/01/14 02:55:22;;;;;;;41.10;17.63;;;-3.40;99.90;;;;;;5020996;28;20107;-64
2024/01/14 02:57:55;;;;;;;41.13;18.02;;;-3.40;99.90;;;;;;5018920;28;20733;-64
2024/01/14 03:00:26;;;;;;;45.08;17.17;;;-3.40;99.90;;;;;;5019868;28;20059;-64
2024/01/14 03:02:58;;;;;;;36.72;16.30;;;-3.40;99.90;;;;;;5021375;28;20050;-64
2024/01/14 03:05:30;;;;;;;37.75;16.08;;;-3.40;99.90;;;;;;5016791;28;20081;-64
2024/01/14 03:08:02;;;;;;;38.42;16.15;;;-3.40;99.90;;;;;;5018340;28;20100;-64
2024/01/14 03:10:34;;;;;;;33.10;14.40;;;-3.30;99.90;;;;;;5020101;28;20065;-64
2024/01/14 03:13:06;;;;;;;37.40;16.15;;;-3.40;99.90;;;;;;5016086;28;20546;-64
2024/01/14 03:15:37;;;;;;;40.13;18.27;;;-3.40;99.90;;;;;;5022118;28;20037;-64
2024/01/14 03:18:10;;;;;;;39.67;16.83;;;-3.40;99.90;;;;;;5026369;28;20053;-64
2024/01/14 03:20:42;;;;;;;36.00;16.27;;;-3.40;99.90;;;;;;5038741;28;20437;-64
2024/01/14 03:23:14;;;;;;;38.08;16.85;;;-3.40;99.90;;;;;;5023060;28;20042;-64
2024/01/14 03:25:46;;;;;;;36.17;15.70;;;-3.40;99.90;;;;;;5038855;28;20042;-64
2024/01/14 03:28:18;;;;;;;38.85;17.27;;;-3.30;99.90;;;;;;5024684;28;20049;-64
2024/01/14 03:30:45;;;;;;;34.85;16.83;;;-3.30;99.90;;;;;;5024266;28;20041;-64
2024/01/14 03:33:18;;;;;;;37.80;16.52;;;-3.30;99.90;;;;;;5021716;28;20702;-64
2024/01/14 03:35:50;;;;;;;25.20;11.63;;;-3.30;99.90;;;;;;5023078;28;20037;-64
2024/01/14 03:38:22;;;;;;;46.08;17.45;;;-3.30;99.90;;;;;;5016306;28;20038;-64
2024/01/14 03:40:54;;;;;;;39.35;15.85;;;-3.30;99.90;;;;;;5018988;28;20457;-64
2024/01/14 03:43:25;;;;;;;39.67;16.48;;;-3.30;99.90;;;;;;5037908;28;20080;-64
2024/01/14 03:45:57;;;;;;;39.63;16.63;;;-3.20;99.90;;;;;;5025426;28;20104;-64
2024/01/14 03:48:29;;;;;;;34.55;15.00;;;-3.20;99.90;;;;;;5020944;28;20037;-64
2024/01/14 03:51:01;;;;;;;39.05;18.25;;;-3.20;99.90;;;;;;5024732;28;20034;-64
2024/01/14 03:53:33;;;;;;;42.95;16.98;;;-3.30;99.90;;;;;;5006733;28;20121;-64
2024/01/14 03:56:05;;;;;;;43.13;18.58;;;-3.30;99.90;;;;;;5024706;28;20123;-64
2024/01/14 03:58:37;;;;;;;38.53;17.40;;;-3.30;99.90;;;;;;5023409;28;20038;-64
2024/01/14 04:01:17;;;;;;;40.25;17.67;;;-3.30;99.90;;;;;;5017663;28;20049;-64
2024/01/14 04:03:49;;;;;;;39.28;17.25;;;-3.30;99.90;;;;;;5025966;28;20197;-64
2024/01/14 04:06:22;;;;;;;41.25;16.85;;;-3.30;99.90;;;;;;5019445;28;20060;-64
2024/01/14 04:08:54;;;;;;;28.15;13.20;;;-3.30;99.90;;;;;;5021453;28;20049;-64
2024/01/14 04:11:26;;;;;;;41.05;17.25;;;-3.30;99.90;;;;;;5017550;28;20065;-64
2024/01/14 04:13:58;;;;;;;37.97;17.17;;;-3.30;99.90;;;;;;5028035;28;20072;-65
2024/01/14 04:16:41;;;;;;;40.45;17.73;;;-3.40;99.90;;;;;;5022343;28;20049;-64
2024/01/14 04:19:13;;;;;;;29.02;13.82;;;-3.40;99.90;;;;;;5023015;28;20080;-64
2024/01/14 04:21:39;;;;;;;40.15;17.05;;;-3.50;99.90;;;;;;5022171;28;20052;-64
2024/01/14 04:24:13;;;;;;;45.63;17.98;;;-3.50;99.90;;;;;;5020455;28;20342;-64
2024/01/14 04:26:44;;;;;;;36.83;17.30;;;-3.50;99.90;;;;;;5018185;28;20044;-64
2024/01/14 04:29:16;;;;;;;41.80;18.98;;;-3.50;99.90;;;;;;5016533;28;20080;-64
2024/01/14 04:31:48;;;;;;;43.65;18.55;;;-3.50;99.90;;;;;;5016699;28;20623;-64
2024/01/14 04:34:20;;;;;;;36.95;18.17;;;-3.50;99.90;;;;;;5042087;28;20383;-63
2024/01/14 04:36:52;;;;;;;44.85;19.50;;;-3.60;99.90;;;;;;5036498;28;20037;-64
2024/01/14 04:39:23;;;;;;;38.28;17.23;;;-3.50;99.90;;;;;;5019630;28;20078;-64
2024/01/14 04:41:50;;;;;;;42.03;19.38;;;-3.50;99.90;;;;;;5040516;28;20042;-64
2024/01/14 04:44:22;;;;;;;39.05;18.40;;;-3.60;99.90;;;;;;5022305;28;20509;-64
2024/01/14 04:46:54;;;;;;;38.97;16.92;;;-3.60;99.90;;;;;;5022881;28;20140;-64
2024/01/14 04:49:26;;;;;;;33.50;16.50;;;-3.50;99.90;;;;;;5022722;28;20049;-64
2024/01/14 04:51:53;;;;;;;37.75;16.67;;;-3.50;99.90;;;;;;5021136;28;20026;-64
2024/01/14 04:54:25;;;;;;;38.70;16.67;;;-3.50;99.90;;;;;;5019786;28;20038;-64
2024/01/14 04:56:58;;;;;;;30.73;15.57;;;-3.50;99.90;;;;;;5013149;28;20033;-64
2024/01/14 04:59:30;;;;;;;57.30;22.90;;;-3.50;99.90;;;;;;5015898;28;20042;-64
2024/01/14 05:02:02;;;;;;;51.13;21.52;;;-3.50;99.90;;;;;;5020295;28;20564;-64
2024/01/14 05:04:34;;;;;;;42.97;18.35;;;-3.60;99.90;;;;;;5022354;28;20050;-64
2024/01/14 05:07:05;;;;;;;37.25;17.08;;;-3.60;99.90;;;;;;5022986;28;20532;-64
2024/01/14 05:09:37;;;;;;;37.13;17.48;;;-3.60;99.90;;;;;;5024148;28;20045;-64
2024/01/14 05:12:09;;;;;;;41.25;19.13;;;-3.60;99.90;;;;;;5020617;28;20052;-64
2024/01/14 05:14:41;;;;;;;38.58;16.50;;;-3.60;99.90;;;;;;5018041;28;20042;-64
2024/01/14 05:17:14;;;;;;;39.45;17.80;;;-3.60;99.90;;;;;;5017377;28;20087;-64
2024/01/14 05:19:41;;;;;;;37.05;15.23;;;-3.60;99.90;;;;;;5015503;28;20052;-64
2024/01/14 05:22:13;;;;;;;38.47;16.92;;;-3.70;99.90;;;;;;5011730;28;20125;-64
2024/01/14 05:24:46;;;;;;;41.58;16.00;;;-3.70;99.90;;;;;;5023767;28;20828;-64
2024/01/14 05:27:18;;;;;;;36.58;15.43;;;-3.70;99.90;;;;;;5018998;28;20057;-64
2024/01/14 05:29:50;;;;;;;38.45;15.10;;;-3.80;99.90;;;;;;5020378;28;20120;-63
2024/01/14 05:32:22;;;;;;;40.25;17.08;;;-3.80;99.90;;;;;;5036776;28;20048;-64
2024/01/14 05:34:55;;;;;;;34.45;14.50;;;-3.80;99.90;;;;;;5018570;28;20065;-64
2024/01/14 05:37:27;;;;;;;29.03;11.67;;;-3.80;99.90;;;;;;5019777;28;20033;-64
2024/01/14 05:39:58;;;;;;;31.77;13.93;;;-3.90;99.90;;;;;;5025721;28;20303;-64
2024/01/14 05:42:30;;;;;;;37.50;16.42;;;-3.90;99.90;;;;;;5016174;28;20042;-64
2024/01/14 05:45:02;;;;;;;33.55;15.25;;;-3.90;99.90;;;;;;5020764;28;20053;-65
2024/01/14 05:47:34;;;;;;;31.80;15.40;;;-3.90;99.90;;;;;;5013581;28;20053;-64
2024/01/14 05:50:07;;;;;;;33.28;16.38;;;-3.90;99.90;;;;;;5016950;28;20092;-64
2024/01/14 05:52:40;;;;;;;39.00;17.15;;;-3.90;99.90;;;;;;5011935;28;20084;-64
2024/01/14 05:55:12;;;;;;;39.58;17.55;;;-3.80;99.90;;;;;;5013349;28;20041;-64
2024/01/14 05:57:39;;;;;;;36.22;17.88;;;-3.80;99.90;;;;;;5020120;28;20038;-64
2024/01/14 06:00:11;;;;;;;39.85;18.60;;;-3.90;99.90;;;;;;5017378;28;20530;-64
2024/01/14 06:02:38;;;;;;;44.72;17.65;;;-3.90;99.90;;;;;;5024646;28;20589;-64
2024/01/14 06:05:10;;;;;;;44.30;19.60;;;-3.90;99.90;;;;;;5020449;28;20870;-64
2024/01/14 06:07:42;;;;;;;39.63;17.33;;;-3.90;99.90;;;;;;5023861;28;20528;-64
2024/01/14 06:10:14;;;;;;;37.58;16.50;;;-3.90;99.90;;;;;;5019271;28;20859;-64
2024/01/14 06:12:48;;;;;;;38.97;17.15;;;-3.90;99.90;;;;;;5014030;28;20061;-64
2024/01/14 06:15:20;;;;;;;34.17;14.15;;;-3.90;99.90;;;;;;5009688;28;20518;-64
2024/01/14 06:17:51;;;;;;;35.17;15.73;;;-3.90;99.90;;;;;;5014510;28;20103;-64
2024/01/14 06:20:23;;;;;;;36.22;14.48;;;-4.00;99.90;;;;;;5011605;28;20048;-64
2024/01/14 06:22:55;;;;;;;39.85;16.10;;;-4.00;99.90;;;;;;5015772;28;20045;-64
2024/01/14 06:25:27;;;;;;;36.40;16.88;;;-4.00;99.90;;;;;;5020486;28;20061;-64
2024/01/14 06:28:00;;;;;;;41.83;17.50;;;-4.10;99.90;;;;;;5021238;28;20128;-64
2024/01/14 06:30:31;;;;;;;39.97;16.33;;;-4.10;99.90;;;;;;5017468;28;20076;-64
2024/01/14 06:33:04;;;;;;;38.78;17.08;;;-4.10;99.90;;;;;;5017531;28;20539;-64
2024/01/14 06:35:36;;;;;;;42.55;16.10;;;-4.10;99.90;;;;;;5017627;28;20049;-64
2024/01/14 06:38:08;;;;;;;44.38;18.13;;;-4.10;99.90;;;;;;5027481;28;20061;-64
2024/01/14 06:40:40;;;;;;;38.90;16.00;;;-4.10;99.90;;;;;;5041161;28;20034;-63
2024/01/14 06:43:12;;;;;;;37.33;16.88;;;-4.10;99.90;;;;;;5013323;28;20069;-64
2024/01/14 06:45:43;;;;;;;36.35;16.67;;;-4.10;99.90;;;;;;5021945;28;20034;-64
2024/01/14 06:48:15;;;;;;;47.05;17.75;;;-4.10;99.90;;;;;;5018576;28;20048;-64
2024/01/14 06:50:48;;;;;;;42.67;17.75;;;-4.10;99.90;;;;;;5021886;28;20532;-64
2024/01/14 06:53:20;;;;;;;44.67;18.83;;;-4.10;99.90;;;;;;5020804;28;20033;-64
2024/01/14 06:55:51;;;;;;;46.00;18.50;;;-4.10;99.90;;;;;;5022330;28;20502;-64
2024/01/14 06:58:23;;;;;;;44.60;18.10;;;-4.10;99.90;;;;;;5021886;28;20044;-64
2024/01/14 07:00:55;;;;;;;42.80;19.50;;;-4.20;99.90;;;;;;5018859;28;20050;-63
2024/01/14 07:03:27;;;;;;;47.92;18.65;;;-4.20;99.90;;;;;;5014304;28;20049;-63
2024/01/14 07:05:59;;;;;;;56.40;25.58;;;-4.20;99.90;;;;;;5015607;28;20459;-63
2024/01/14 07:08:26;;;;;;;47.42;19.27;;;-4.20;99.90;;;;;;5043084;28;20041;-64
2024/01/14 07:11:00;;;;;;;48.25;19.40;;;-4.20;99.90;;;;;;5014499;28;20038;-63
2024/01/14 07:13:32;;;;;;;50.28;19.63;;;-4.30;99.90;;;;;;5026538;28;20049;-63
2024/01/14 07:16:04;;;;;;;79.38;36.83;;;-4.30;99.90;;;;;;5019739;28;20033;-63
2024/01/14 07:18:36;;;;;;;47.03;20.00;;;-4.30;99.90;;;;;;5020993;28;20046;-63
2024/01/14 07:21:10;;;;;;;45.30;20.23;;;-4.40;99.90;;;;;;5027899;28;20045;-63
2024/01/14 07:23:42;;;;;;;60.42;26.63;;;-4.40;99.90;;;;;;5028445;28;20041;-63
2024/01/14 07:26:16;;;;;;;50.90;21.45;;;-4.40;99.90;;;;;;5028771;28;20465;-63
2024/01/14 07:28:43;;;;;;;55.47;23.30;;;-4.40;99.90;;;;;;5026622;28;20037;-63
2024/01/14 07:31:20;;;;;;;52.75;22.42;;;-4.40;99.90;;;;;;5025928;28;20056;-64
2024/01/14 07:33:52;;;;;;;51.22;20.52;;;-4.50;99.90;;;;;;5023286;28;20052;-64
2024/01/14 07:36:24;;;;;;;82.65;29.30;;;-4.50;99.90;;;;;;5017029;28;20037;-64
2024/01/14 07:39:02;;;;;;;86.57;30.83;;;-4.60;99.90;;;;;;5023723;28;20111;-64
2024/01/14 07:41:34;;;;;;;55.90;23.05;;;-4.60;99.90;;;;;;5025636;28;20060;-64
2024/01/14 07:44:12;;;;;;;54.92;20.92;;;-4.50;99.90;;;;;;5013547;28;20052;-63
2024/01/14 07:46:45;;;;;;;51.50;20.30;;;-4.50;99.90;;;;;;5041931;28;20041;-64
2024/01/14 07:49:17;;;;;;;43.40;18.63;;;-4.50;99.90;;;;;;5027760;28;20561;-63
2024/01/14 07:51:48;;;;;;;65.57;24.85;;;-4.40;99.90;;;;;;5029093;28;20124;-64
2024/01/14 07:54:15;;;;;;;51.72;20.48;;;-4.40;99.90;;;;;;5024075;28;20506;-64
2024/01/14 07:56:48;;;;;;;59.50;22.90;;;-4.40;99.90;;;;;;5027296;28;20117;-63
2024/01/14 07:59:20;;;;;;;47.08;20.02;;;-4.30;99.90;;;;;;5038388;28;20047;-64
2024/01/14 08:01:52;;;;;;;54.90;20.53;;;-4.20;99.90;;;;;;5021816;28;20093;-64
2024/01/14 08:04:24;;;;;;;49.47;19.60;;;-4.20;99.90;;;;;;5025452;28;20052;-64
2024/01/14 08:06:56;;;;;;;53.67;22.98;;;-4.20;99.90;;;;;;5025461;28;20112;-64
2024/01/14 08:09:27;;;;;;;55.50;21.90;;;-4.10;99.90;;;;;;5027405;28;20045;-64
2024/01/14 08:11:57;;;;;;;61.78;25.15;;;-4.10;99.90;;;;;;5024149;28;20052;-63
2024/01/14 08:14:30;;;;;;;69.53;32.10;;;-4.10;99.90;;;;;;5025966;28;20070;-67
2024/01/14 08:16:57;;;;;;;60.13;25.13;;;-4.10;99.90;;;;;;5026011;28;20054;-68
2024/01/14 08:19:29;;;;;;;62.45;26.88;;;-4.20;99.90;;;;;;5026986;28;20043;-67
2024/01/14 08:22:01;;;;;;;57.50;23.20;;;-4.20;99.90;;;;;;5027798;28;20049;-68
2024/01/14 08:24:33;;;;;;;52.85;21.75;;;-4.10;99.90;;;;;;5025137;28;20038;-68
2024/01/14 08:27:00;;;;;;;49.75;19.75;;;-4.10;99.90;;;;;;5024474;28;20502;-67
2024/01/14 08:29:28;;;;;;;47.55;20.63;;;-4.00;99.90;;;;;;5023233;28;20049;-68
2024/01/14 08:32:00;;;;;;;51.60;23.50;;;-4.00;99.90;;;;;;5023204;28;20037;-63
2024/01/14 08:34:32;;;;;;;55.60;23.55;;;-4.00;99.90;;;;;;5022041;28;20569;-64
2024/01/14 08:37:04;;;;;;;58.80;25.48;;;-4.00;99.90;;;;;;5033693;28;20068;-64
2024/01/14 08:39:36;;;;;;;51.13;21.63;;;-4.00;99.90;;;;;;5020250;28;20045;-63
2024/01/14 08:42:08;;;;;;;53.35;21.92;;;-4.00;99.90;;;;;;5021929;28;20046;-64
2024/01/14 08:44:40;;;;;;;56.40;21.65;;;-4.00;99.90;;;;;;5038101;28;20021;-63
2024/01/14 08:47:12;;;;;;;52.58;20.08;;;-4.10;99.90;;;;;;5039149;28;20053;-63
2024/01/14 08:49:44;;;;;;;35.30;15.67;;;-4.10;99.90;;;;;;5024724;28;20091;-64
2024/01/14 08:52:16;;;;;;;49.08;19.73;;;-4.10;99.90;;;;;;5020816;28;20390;-64
2024/01/14 08:54:48;;;;;;;44.88;18.58;;;-4.10;99.90;;;;;;5020522;28;20060;-65
2024/01/14 08:57:19;;;;;;;47.72;19.40;;;-4.00;99.90;;;;;;5024326;28;20045;-64
2024/01/14 08:59:53;;;;;;;42.60;18.10;;;-4.00;99.90;;;;;;5024120;28;20054;-64
2024/01/14 09:02:20;;;;;;;47.65;17.77;;;-3.90;99.90;;;;;;5026123;28;20053;-64
2024/01/14 09:04:52;;;;;;;46.63;19.83;;;-3.80;99.90;;;;;;5026365;28;20067;-64
2024/01/14 09:07:18;;;;;;;48.05;19.48;;;-3.80;99.90;;;;;;5028400;28;20046;-64
2024/01/14 09:09:50;;;;;;;43.58;17.30;;;-3.80;99.90;;;;;;5041733;28;20550;-64
2024/01/14 09:12:22;;;;;;;46.53;19.73;;;-3.70;99.90;;;;;;5022069;28;20438;-64
2024/01/14 09:14:54;;;;;;;49.65;19.30;;;-3.70;99.90;;;;;;5020371;28;20540;-64
2024/01/14 09:17:26;;;;;;;37.67;17.33;;;-3.60;99.90;;;;;;5034403;28;20033;-64
2024/01/14 09:19:58;;;;;;;33.70;16.63;;;-3.50;99.90;;;;;;5024317;28;20050;-67
2024/01/14 09:22:30;;;;;;;38.97;16.27;;;-3.60;99.90;;;;;;5020955;28;20387;-64
2024/01/14 09:25:01;;;;;;;37.10;15.77;;;-3.70;99.90;;;;;;5019760;28;20069;-65
2024/01/14 09:27:34;;;;;;;40.83;17.48;;;-3.80;99.90;;;;;;5024251;28;20041;-65
2024/01/14 09:30:07;;;;;;;36.63;15.50;;;-3.80;99.90;;;;;;5025202;28;20061;-65
2024/01/14 09:32:39;;;;;;;40.63;16.10;;;-3.80;99.90;;;;;;5022110;28;20069;-65
2024/01/14 09:35:11;;;;;;;41.47;16.98;;;-3.70;99.90;;;;;;5020208;28;20038;-66
2024/01/14 09:37:42;;;;;;;36.42;16.73;;;-3.60;99.90;;;;;;5020717;28;20034;-65
2024/01/14 09:40:16;;;;;;;45.13;17.63;;;-3.70;99.90;;;;;;5027121;28;20038;-72
2024/01/14 09:42:47;;;;;;;36.97;16.17;;;-3.60;99.90;;;;;;5021849;28;20116;-64
2024/01/14 09:45:21;;;;;;;35.95;16.58;;;-3.60;99.90;;;;;;5029530;28;20041;-64
2024/01/14 09:47:55;;;;;;;42.95;18.45;;;-3.50;99.90;;;;;;5025992;28;20613;-65
2024/01/14 09:50:24;;;;;;;42.78;17.02;;;-3.40;99.90;;;;;;5019332;28;20064;-65
2024/01/14 09:52:58;;;;;;;37.67;18.10;;;-3.30;99.90;;;;;;5026748;28;20091;-64
2024/01/14 09:55:30;;;;;;;42.17;17.73;;;-3.30;99.90;;;;;;5024966;28;20045;-64
2024/01/14 09:58:04;;;;;;;47.22;18.38;;;-3.20;99.90;;;;;;5027832;28;20064;-65
2024/01/14 10:00:39;;;;;;;35.63;15.55;;;-3.20;99.90;;;;;;5038246;28;20053;-64
2024/01/14 10:03:11;;;;;;;40.05;16.30;;;-3.10;99.90;;;;;;5020525;28;20128;-65
2024/01/14 10:05:44;;;;;;;35.67;16.17;;;-3.10;99.90;;;;;;5024161;28;20817;-65
2024/01/14 10:08:16;;;;;;;36.70;16.92;;;-3.00;99.90;;;;;;5021236;28;20082;-64
2024/01/14 10:10:52;;;;;;;33.65;15.95;;;-3.00;99.90;;;;;;5018458;28;20050;-64
2024/01/14 10:13:24;;;;;;;36.28;16.33;;;-3.20;99.90;;;;;;5019755;28;20041;-65
2024/01/14 10:15:56;;;;;;;37.08;16.25;;;-3.20;99.90;;;;;;5017194;28;20066;-65
2024/01/14 10:18:29;;;;;;;39.22;16.48;;;-3.20;99.90;;;;;;5030337;28;20041;-64
2024/01/14 10:20:55;;;;;;;40.25;17.35;;;-3.20;99.90;;;;;;5043051;28;20508;-64
2024/01/14 10:23:28;;;;;;;36.00;16.60;;;-3.20;99.90;;;;;;5024147;28;20077;-65
2024/01/14 10:26:02;;;;;;;37.97;15.75;;;-3.10;99.90;;;;;;5040052;28;20046;-65
2024/01/14 10:28:36;;;;;;;38.15;17.17;;;-3.10;99.90;;;;;;5026057;28;20069;-65
2024/01/14 10:31:08;;;;;;;;;;;-3.00;99.90;;;;;;5028778;28;20073;-64
2024/01/14 10:33:39;;;;;;;36.38;15.48;;;-2.90;99.90;;;;;;5022868;28;20386;-65
2024/01/14 10:36:11;;;;;;;41.38;18.33;;;-2.80;99.90;;;;;;5027627;28;20042;-65
2024/01/14 10:38:44;;;;;;;40.03;18.20;;;-2.70;99.90;;;;;;5007261;28;20524;-65
2024/01/14 10:41:16;;;;;;;37.15;15.38;;;-2.50;99.90;;;;;;5028679;28;20129;-65
2024/01/14 10:43:49;;;;;;;35.78;17.17;;;-2.40;99.90;;;;;;5020440;28;20096;-65
2024/01/14 10:46:22;;;;;;;38.08;17.25;;;-2.50;99.90;;;;;;5006153;28;20461;-65
2024/01/14 10:49:01;;;;;;;37.28;15.85;;;-2.40;99.90;;;;;;5027376;28;20060;-65
2024/01/14 10:51:41;;;;;;;33.78;15.07;;;-2.30;99.90;;;;;;5053878;28;20109;-64
2024/01/14 10:54:52;;;;;;;37.17;17.67;;;-2.20;99.90;;;;;;5024935;28;20072;-65
2024/01/14 10:57:36;;;;;;;34.92;14.77;;;-2.20;99.90;;;;;;5006805;28;20045;-65
2024/01/14 11:00:10;;;;;;;30.70;14.90;;;-2.20;99.90;;;;;;5019368;28;20037;-66
2024/01/14 11:02:44;;;;;;;;;;;-2.10;99.90;;;;;;5022448;28;20030;-65
2024/01/14 11:05:18;;;;;;;33.60;14.75;;;-2.00;99.90;;;;;;5040857;28;20393;-65
2024/01/14 11:07:50;;;;;;;35.10;16.20;;;-2.00;99.90;;;;;;5019084;28;20136;-66
2024/01/14 11:10:17;;;;;;;34.65;17.30;;;-2.00;99.90;;;;;;5026899;28;20052;-65
2024/01/14 11:13:00;;;;;;;32.85;15.48;;;-1.90;99.90;;;;;;5028621;28;20120;-65
2024/01/14 11:15:41;;;;;;;36.08;16.35;;;-1.80;99.90;;;;;;5026841;28;20056;-65
2024/01/14 11:18:31;;;;;;;36.38;14.85;;;-1.80;99.90;;;;;;5021900;28;20050;-65
2024/01/14 11:21:23;;;;;;;34.92;16.15;;;-1.70;99.90;;;;;;5024735;28;20050;-65
2024/01/14 11:23:57;;;;;;;35.63;16.08;;;-1.70;99.90;;;;;;5019072;28;20049;-65
2024/01/14 11:26:29;;;;;;;38.83;16.92;;;-1.70;99.90;;;;;;5026507;28;20057;-65
2024/01/14 11:29:03;;;;;;;32.60;16.30;;;-1.80;99.90;;;;;;5019400;28;20044;-65
2024/01/14 11:32:02;;;;;;;32.28;16.10;;;-1.80;99.90;;;;;;5021767;28;20042;-66
2024/01/14 11:34:50;;;;;;;32.92;17.02;;;-1.60;99.90;;;;;;5023993;28;20123;-65
2024/01/14 11:37:40;;;;;;;37.90;16.27;;;-1.50;99.90;;;;;;5019106;28;20038;-65
2024/01/14 11:40:24;;;;;;;42.17;18.25;;;-1.50;99.90;;;;;;5026617;28;20052;-65
2024/01/14 11:43:10;;;;;;;34.67;16.60;;;-1.40;99.90;;;;;;5037868;28;20100;-65
2024/01/14 11:45:42;;;;;;;38.10;17.08;;;-1.40;99.90;;;;;;5023505;28;20040;-65
2024/01/14 11:48:14;;;;;;;36.95;16.90;;;-1.30;99.90;;;;;;5024514;28;20048;-65
2024/01/14 11:50:50;;;;;;;35.40;17.40;;;-1.20;99.90;;;;;;5020273;28;20413;-65
2024/01/14 11:53:22;;;;;;;34.05;15.80;;;-1.10;99.90;;;;;;5020256;28;20108;-65
2024/01/14 11:55:54;;;;;;;36.38;17.67;;;-1.10;99.90;;;;;;5016476;28;20046;-65
2024/01/14 11:58:28;;;;;;;32.17;15.85;;;-1.00;99.90;;;;;;5035376;28;20445;-65
2024/01/14 12:01:02;;;;;;;31.40;14.95;;;-1.00;99.90;;;;;;5014986;28;20566;-66
2024/01/14 12:03:28;;;;;;;38.72;16.02;;;-0.90;99.90;;;;;;5041190;28;20124;-65
2024/01/14 12:06:03;;;;;;;32.60;16.65;;;-0.90;99.90;;;;;;5020435;28;20046;-65
2024/01/14 12:08:34;;;;;;;32.38;15.15;;;-0.90;99.90;;;;;;5042195;28;20510;-65
2024/01/14 12:11:07;;;;;;;34.35;16.17;;;-0.90;99.90;;;;;;5022039;28;20137;-65
2024/01/14 12:13:38;;;;;;;36.92;18.55;;;-0.70;99.90;;;;;;5023289;28;20097;-65
2024/01/14 12:16:10;;;;;;;38.05;16.55;;;-0.60;99.90;;;;;;5019745;28;20049;-65
2024/01/14 12:18:43;;;;;;;31.73;15.25;;;-0.50;99.90;;;;;;5024614;28;20037;-64
2024/01/14 12:21:10;;;;;;;32.72;16.45;;;-0.50;99.90;;;;;;5035182;28;20041;-65
2024/01/14 12:23:42;;;;;;;33.42;15.73;;;-0.30;99.90;;;;;;5022302;28;20049;-65
2024/01/14 12:26:10;;;;;;;31.60;14.70;;;-0.20;99.90;;;;;;5022729;28;20053;-63
2024/01/14 12:28:38;;;;;;;31.92;15.10;;;-0.10;99.90;;;;;;5019830;28;20062;-64
2024/01/14 12:31:21;;;;;;;28.70;15.23;;;-0.10;99.90;;;;;;5024065;28;20056;-65
2024/01/14 12:33:49;;;;;;;33.63;16.55;;;-0.10;99.90;;;;;;5040839;28;20314;-64
2024/01/14 12:36:21;;;;;;;29.23;15.32;;;-0.10;99.90;;;;;;5025386;28;20041;-65
2024/01/14 12:38:53;;;;;;;30.33;15.00;;;0.00;99.90;;;;;;5015364;28;20097;-65
2024/01/14 12:41:25;;;;;;;27.98;15.07;;;0.10;99.90;;;;;;5037060;28;20544;-64
2024/01/14 12:43:57;;;;;;;32.67;15.55;;;0.20;99.90;;;;;;5019404;28;20076;-65
2024/01/14 12:46:29;;;;;;;29.75;14.73;;;0.10;99.90;;;;;;5018880;28;20125;-65
2024/01/14 12:49:05;;;;;;;29.05;13.95;;;0.00;99.90;;;;;;5014298;28;20050;-65
2024/01/14 12:51:37;;;;;;;29.98;15.70;;;0.00;99.90;;;;;;5026291;28;20113;-65
2024/01/14 12:54:09;;;;;;;32.63;15.82;;;0.00;99.90;;;;;;5032261;28;20065;-65